sensor_id;sensor_type;location;lat;lon;timestamp;P1;durP1;ratioP1;P2;durP2;ratioP2
45314;SDS011;31051;51.540;5.852;2023-05-14T00:01:40;8.6;;;7.8;;
45314;SDS011;31051;51.540;5.852;2023-05-14T00:14:40;8.6;;;7.8;;
45314;SDS011;31051;51.540;5.852;2023-05-14T00:27:39;9.1;;;8.3;;
45314;SDS011;31051;51.540;5.852;2023-05-14T00:40:38;10.3;;;9.4;;
45314;SDS011;31051;51.540;5.852;2023-05-14T00:53:38;10.2;;;9.2;;
45314;SDS011;31051;51.540;5.852;2023-05-14T01:06:37;10.5;;;9.5;;
45314;SDS011;31051;51.540;5.852;2023-05-14T01:19:37;11.1;;;9.8;;
45314;SDS011;31051;51.540;5.852;2023-05-14T01:32:36;9.9;;;9.0;;
45314;SDS011;31051;51.540;5.852;2023-05-14T01:45:35;10.2;;;9.2;;
45314;SDS011;31051;51.540;5.852;2023-05-14T01:58:35;10.6;;;9.7;;
45314;SDS011;31051;51.540;5.852;2023-05-14T02:11:34;11.1;;;10.2;;
45314;SDS011;31051;51.540;5.852;2023-05-14T02:24:33;12.5;;;11.3;;
45314;SDS011;31051;51.540;5.852;2023-05-14T02:37:33;12.1;;;11.1;;
45314;SDS011;31051;51.540;5.852;2023-05-14T02:50:32;13.8;;;12.6;;
45314;SDS011;31051;51.540;5.852;2023-05-14T03:03:31;15.5;;;14.1;;
45314;SDS011;31051;51.540;5.852;2023-05-14T03:16:31;15.9;;;14.5;;
45314;SDS011;31051;51.540;5.852;2023-05-14T03:29:30;15.7;;;14.4;;
45314;SDS011;31051;51.540;5.852;2023-05-14T03:42:29;18.6;;;16.9;;
45314;SDS011;31051;51.540;5.852;2023-05-14T03:55:28;18.5;;;16.8;;
45314;SDS011;31051;51.540;5.852;2023-05-14T04:08:28;19.7;;;17.9;;
45314;SDS011;31051;51.540;5.852;2023-05-14T04:21:27;17.9;;;16.3;;
45314;SDS011;31051;51.540;5.852;2023-05-14T04:34:26;17.5;;;15.9;;
45314;SDS011;31051;51.540;5.852;2023-05-14T04:47:26;18.9;;;17.2;;
45314;SDS011;31051;51.540;5.852;2023-05-14T05:00:25;18.1;;;16.5;;
45314;SDS011;31051;51.540;5.852;2023-05-14T05:13:24;19.6;;;17.8;;
45314;SDS011;31051;51.540;5.852;2023-05-14T05:26:24;18.8;;;17.2;;
45314;SDS011;31051;51.540;5.852;2023-05-14T05:39:23;19.5;;;17.8;;
45314;SDS011;31051;51.540;5.852;2023-05-14T05:52:22;19.6;;;17.7;;
45314;SDS011;31051;51.540;5.852;2023-05-14T06:05:22;19.6;;;17.7;;
45314;SDS011;31051;51.540;5.852;2023-05-14T06:18:21;18.3;;;16.7;;
45314;SDS011;31051;51.540;5.852;2023-05-14T06:31:20;16.8;;;15.2;;
45314;SDS011;31051;51.540;5.852;2023-05-14T06:44:20;16.5;;;14.9;;
45314;SDS011;31051;51.540;5.852;2023-05-14T06:57:19;17.8;;;16.2;;
45314;SDS011;31051;51.540;5.852;2023-05-14T07:10:19;16.1;;;14.5;;
45314;SDS011;31051;51.540;5.852;2023-05-14T07:23:17;13.8;;;12.6;;
45314;SDS011;31051;51.540;5.852;2023-05-14T07:36:06;12.5;;;11.3;;
45314;SDS011;31051;51.540;5.852;2023-05-14T07:49:05;15.5;;;14.0;;
45314;SDS011;31051;51.540;5.852;2023-05-14T08:01:54;16.8;;;15.1;;
45314;SDS011;31051;51.540;5.852;2023-05-14T08:14:53;18.5;;;16.6;;
45314;SDS011;31051;51.540;5.852;2023-05-14T08:27:53;18.2;;;16.5;;
45314;SDS011;31051;51.540;5.852;2023-05-14T08:40:52;18.9;;;17.1;;
45314;SDS011;31051;51.540;5.852;2023-05-14T08:53:52;16.8;;;15.2;;
45314;SDS011;31051;51.540;5.852;2023-05-14T09:06:50;15.2;;;13.8;;
45314;SDS011;31051;51.540;5.852;2023-05-14T09:19:39;14.0;;;12.7;;
45314;SDS011;31051;51.540;5.852;2023-05-14T09:32:38;13.6;;;12.3;;
45314;SDS011;31051;51.540;5.852;2023-05-14T09:45:27;13.1;;;12.0;;
45314;SDS011;31051;51.540;5.852;2023-05-14T09:58:26;13.0;;;11.8;;
45314;SDS011;31051;51.540;5.852;2023-05-14T10:11:24;13.3;;;11.9;;
45314;SDS011;31051;51.540;5.852;2023-05-14T10:24:13;13.0;;;11.8;;
45314;SDS011;31051;51.540;5.852;2023-05-14T10:37:01;11.5;;;10.3;;
45314;SDS011;31051;51.540;5.852;2023-05-14T10:49:50;10.7;;;9.7;;
45314;SDS011;31051;51.540;5.852;2023-05-14T11:02:49;8.7;;;7.4;;
45314;SDS011;31051;51.540;5.852;2023-05-14T11:15:46;10.3;;;8.9;;
45314;SDS011;31051;51.540;5.852;2023-05-14T11:28:34;10.2;;;9.0;;
45314;SDS011;31051;51.540;5.852;2023-05-14T11:41:21;7.8;;;6.9;;
45314;SDS011;31051;51.540;5.852;2023-05-14T11:54:10;7.3;;;6.5;;
45314;SDS011;31051;51.540;5.852;2023-05-14T12:06:58;7.0;;;5.6;;
45314;SDS011;31051;51.540;5.852;2023-05-14T12:32:34;6.0;;;3.1;;
45314;SDS011;31051;51.540;5.852;2023-05-14T12:45:21;4.4;;;3.1;;
45314;SDS011;31051;51.540;5.852;2023-05-14T12:58:09;3.4;;;2.5;;
45314;SDS011;31051;51.540;5.852;2023-05-14T13:10:56;3.9;;;2.6;;
45314;SDS011;31051;51.540;5.852;2023-05-14T13:23:43;3.6;;;2.4;;
45314;SDS011;31051;51.540;5.852;2023-05-14T14:02:07;4.5;;;3.2;;
45314;SDS011;31051;51.540;5.852;2023-05-14T14:15:04;4.7;;;3.1;;
45314;SDS011;31051;51.540;5.852;2023-05-14T14:27:52;4.5;;;3.1;;
45314;SDS011;31051;51.540;5.852;2023-05-14T14:40:40;5.6;;;2.9;;
45314;SDS011;31051;51.540;5.852;2023-05-14T14:53:39;4.3;;;3.0;;
45314;SDS011;31051;51.540;5.852;2023-05-14T15:19:36;4.9;;;3.2;;
45314;SDS011;31051;51.540;5.852;2023-05-14T15:32:25;4.1;;;2.9;;
45314;SDS011;31051;51.540;5.852;2023-05-14T15:45:23;3.2;;;2.9;;
45314;SDS011;31051;51.540;5.852;2023-05-14T15:58:12;4.2;;;2.8;;
45314;SDS011;31051;51.540;5.852;2023-05-14T16:11:01;4.5;;;2.9;;
45314;SDS011;31051;51.540;5.852;2023-05-14T16:24:00;5.4;;;3.2;;
45314;SDS011;31051;51.540;5.852;2023-05-14T16:36:49;6.3;;;2.9;;
45314;SDS011;31051;51.540;5.852;2023-05-14T16:49:49;5.6;;;3.1;;
45314;SDS011;31051;51.540;5.852;2023-05-14T17:02:47;5.0;;;3.1;;
45314;SDS011;31051;51.540;5.852;2023-05-14T17:15:36;6.5;;;3.6;;
45314;SDS011;31051;51.540;5.852;2023-05-14T17:28:35;5.8;;;3.7;;
45314;SDS011;31051;51.540;5.852;2023-05-14T17:41:24;7.2;;;4.2;;
45314;SDS011;31051;51.540;5.852;2023-05-14T17:54:24;8.0;;;5.0;;
45314;SDS011;31051;51.540;5.852;2023-05-14T18:07:22;7.2;;;4.4;;
45314;SDS011;31051;51.540;5.852;2023-05-14T18:20:10;7.6;;;4.1;;
45314;SDS011;31051;51.540;5.852;2023-05-14T18:32:59;6.7;;;4.1;;
45314;SDS011;31051;51.540;5.852;2023-05-14T18:45:48;6.5;;;4.1;;
45314;SDS011;31051;51.540;5.852;2023-05-14T18:58:48;7.0;;;4.2;;
45314;SDS011;31051;51.540;5.852;2023-05-14T19:11:47;6.6;;;4.7;;
45314;SDS011;31051;51.540;5.852;2023-05-14T19:24:46;8.4;;;5.6;;
45314;SDS011;31051;51.540;5.852;2023-05-14T19:37:46;8.0;;;6.0;;
45314;SDS011;31051;51.540;5.852;2023-05-14T19:50:45;10.6;;;6.8;;
45314;SDS011;31051;51.540;5.852;2023-05-14T20:03:44;10.2;;;7.7;;
45314;SDS011;31051;51.540;5.852;2023-05-14T20:16:33;11.9;;;9.4;;
45314;SDS011;31051;51.540;5.852;2023-05-14T20:29:31;13.5;;;10.4;;
45314;SDS011;31051;51.540;5.852;2023-05-14T20:42:21;14.3;;;11.6;;
45314;SDS011;31051;51.540;5.852;2023-05-14T20:55:20;13.8;;;10.9;;
45314;SDS011;31051;51.540;5.852;2023-05-14T21:08:18;12.9;;;9.7;;
45314;SDS011;31051;51.540;5.852;2023-05-14T21:21:07;12.8;;;9.7;;
45314;SDS011;31051;51.540;5.852;2023-05-14T21:33:56;11.9;;;9.0;;
45314;SDS011;31051;51.540;5.852;2023-05-14T21:46:55;11.1;;;9.7;;
45314;SDS011;31051;51.540;5.852;2023-05-14T21:59:55;10.9;;;9.7;;
45314;SDS011;31051;51.540;5.852;2023-05-14T22:12:54;11.8;;;9.9;;
